Bladeston, Kentucky
Current Conditions -  °F | °C
As of 3:35 AM on Friday 24 Oct 2014 (Local Time) from KFGX Reporting Station
Haze Haze  
Wind Chill: 40°   Ceiling: Unl
Heat Index: 40°   Visibility: 4mi
Dew Point: 39°   Wind: 0mph
Humidity: 97%   Direction: NA
Pressure: 30.14"   Gusts: NA
Location:  38.6516°N, 84.0942°W
Report Text: KFGX 240735Z AUTO 00000KT 4SM BR CLR 05/04 A3014 RMK AO2 T00450041
Loading
Personal Weather Stations






























Interactive Weather Map
Tropical Storm Tracking
New forecast layout! Learn more

10-Day Weather Forecast

Advertisements
Track Severe Weather on mobile